sensor_id;sensor_type;location;lat;lon;timestamp;P1;durP1;ratioP1;P2;durP2;ratioP2
9186;SDS011;7273;48.902;9.410;2023-02-04T00:00:39;15.80;;;14.40;;
9186;SDS011;7273;48.902;9.410;2023-02-04T00:03:05;15.30;;;13.82;;
9186;SDS011;7273;48.902;9.410;2023-02-04T00:05:30;17.80;;;16.17;;
9186;SDS011;7273;48.902;9.410;2023-02-04T00:07:56;22.10;;;19.98;;
9186;SDS011;7273;48.902;9.410;2023-02-04T00:10:21;23.17;;;20.83;;
9186;SDS011;7273;48.902;9.410;2023-02-04T00:12:47;25.02;;;22.45;;
9186;SDS011;7273;48.902;9.410;2023-02-04T00:15:12;25.92;;;20.88;;
9186;SDS011;7273;48.902;9.410;2023-02-04T00:17:38;25.15;;;22.48;;
9186;SDS011;7273;48.902;9.410;2023-02-04T00:20:03;25.50;;;22.83;;
9186;SDS011;7273;48.902;9.410;2023-02-04T00:22:29;27.42;;;24.55;;
9186;SDS011;7273;48.902;9.410;2023-02-04T00:24:55;27.05;;;24.30;;
9186;SDS011;7273;48.902;9.410;2023-02-04T00:27:20;26.55;;;23.85;;
9186;SDS011;7273;48.902;9.410;2023-02-04T00:29:46;26.90;;;24.15;;
9186;SDS011;7273;48.902;9.410;2023-02-04T00:32:11;27.27;;;24.52;;
9186;SDS011;7273;48.902;9.410;2023-02-04T00:34:37;30.20;;;27.05;;
9186;SDS011;7273;48.902;9.410;2023-02-04T00:37:02;27.85;;;25.05;;
9186;SDS011;7273;48.902;9.410;2023-02-04T00:39:28;29.27;;;26.15;;
9186;SDS011;7273;48.902;9.410;2023-02-04T00:41:53;29.02;;;26.00;;
9186;SDS011;7273;48.902;9.410;2023-02-04T00:44:19;26.63;;;23.90;;
9186;SDS011;7273;48.902;9.410;2023-02-04T00:46:44;29.42;;;26.38;;
9186;SDS011;7273;48.902;9.410;2023-02-04T00:49:10;29.73;;;26.58;;
9186;SDS011;7273;48.902;9.410;2023-02-04T00:51:36;28.67;;;25.15;;
9186;SDS011;7273;48.902;9.410;2023-02-04T00:54:02;29.42;;;26.33;;
9186;SDS011;7273;48.902;9.410;2023-02-04T00:56:28;29.35;;;26.30;;
9186;SDS011;7273;48.902;9.410;2023-02-04T00:58:54;30.45;;;27.20;;
9186;SDS011;7273;48.902;9.410;2023-02-04T01:01:19;27.98;;;24.98;;
9186;SDS011;7273;48.902;9.410;2023-02-04T01:03:44;30.58;;;27.35;;
9186;SDS011;7273;48.902;9.410;2023-02-04T01:06:10;30.17;;;26.98;;
9186;SDS011;7273;48.902;9.410;2023-02-04T01:08:35;32.47;;;28.98;;
9186;SDS011;7273;48.902;9.410;2023-02-04T01:11:01;30.77;;;26.70;;
9186;SDS011;7273;48.902;9.410;2023-02-04T01:13:26;32.50;;;29.00;;
9186;SDS011;7273;48.902;9.410;2023-02-04T01:15:52;30.85;;;27.52;;
9186;SDS011;7273;48.902;9.410;2023-02-04T01:18:17;32.22;;;28.63;;
9186;SDS011;7273;48.902;9.410;2023-02-04T01:20:42;31.98;;;28.58;;
9186;SDS011;7273;48.902;9.410;2023-02-04T01:23:08;31.27;;;27.90;;
9186;SDS011;7273;48.902;9.410;2023-02-04T01:25:33;31.55;;;28.10;;
9186;SDS011;7273;48.902;9.410;2023-02-04T01:28:00;29.13;;;25.35;;
9186;SDS011;7273;48.902;9.410;2023-02-04T01:30:25;30.65;;;27.35;;
9186;SDS011;7273;48.902;9.410;2023-02-04T01:32:50;28.85;;;25.25;;
9186;SDS011;7273;48.902;9.410;2023-02-04T01:35:16;28.42;;;25.27;;
9186;SDS011;7273;48.902;9.410;2023-02-04T01:37:41;27.15;;;24.42;;
9186;SDS011;7273;48.902;9.410;2023-02-04T01:40:07;25.60;;;23.02;;
9186;SDS011;7273;48.902;9.410;2023-02-04T01:42:33;24.13;;;21.60;;
9186;SDS011;7273;48.902;9.410;2023-02-04T01:44:59;22.65;;;20.30;;
9186;SDS011;7273;48.902;9.410;2023-02-04T01:47:25;22.10;;;19.92;;
9186;SDS011;7273;48.902;9.410;2023-02-04T01:49:51;24.42;;;22.05;;
9186;SDS011;7273;48.902;9.410;2023-02-04T01:52:19;23.92;;;21.58;;
9186;SDS011;7273;48.902;9.410;2023-02-04T01:54:45;21.25;;;19.10;;
9186;SDS011;7273;48.902;9.410;2023-02-04T01:57:12;21.13;;;19.00;;
9186;SDS011;7273;48.902;9.410;2023-02-04T01:59:44;21.98;;;19.73;;
9186;SDS011;7273;48.902;9.410;2023-02-04T02:02:35;27.38;;;24.45;;
9186;SDS011;7273;48.902;9.410;2023-02-04T02:05:07;25.02;;;22.38;;
9186;SDS011;7273;48.902;9.410;2023-02-04T02:07:35;26.90;;;24.13;;
9186;SDS011;7273;48.902;9.410;2023-02-04T02:10:02;31.33;;;22.83;;
9186;SDS011;7273;48.902;9.410;2023-02-04T02:12:29;23.17;;;20.88;;
9186;SDS011;7273;48.902;9.410;2023-02-04T02:14:54;21.10;;;19.02;;
9186;SDS011;7273;48.902;9.410;2023-02-04T02:17:20;19.67;;;17.80;;
9186;SDS011;7273;48.902;9.410;2023-02-04T02:19:45;20.63;;;18.58;;
9186;SDS011;7273;48.902;9.410;2023-02-04T02:25:18;31.23;;;27.42;;
9186;SDS011;7273;48.902;9.410;2023-02-04T02:27:44;22.60;;;20.35;;
9186;SDS011;7273;48.902;9.410;2023-02-04T02:30:10;23.45;;;21.10;;
9186;SDS011;7273;48.902;9.410;2023-02-04T02:32:37;26.75;;;23.83;;
9186;SDS011;7273;48.902;9.410;2023-02-04T02:35:03;21.15;;;19.08;;
9186;SDS011;7273;48.902;9.410;2023-02-04T02:37:29;21.17;;;19.10;;
9186;SDS011;7273;48.902;9.410;2023-02-04T02:39:55;19.20;;;17.27;;
9186;SDS011;7273;48.902;9.410;2023-02-04T02:42:21;18.73;;;16.95;;
9186;SDS011;7273;48.902;9.410;2023-02-04T02:44:46;22.92;;;20.83;;
9186;SDS011;7273;48.902;9.410;2023-02-04T02:47:14;23.80;;;21.45;;
9186;SDS011;7273;48.902;9.410;2023-02-04T02:49:42;24.10;;;21.70;;
9186;SDS011;7273;48.902;9.410;2023-02-04T02:52:09;20.10;;;18.23;;
9186;SDS011;7273;48.902;9.410;2023-02-04T02:54:36;24.73;;;18.67;;
9186;SDS011;7273;48.902;9.410;2023-02-04T02:57:01;17.67;;;15.93;;
9186;SDS011;7273;48.902;9.410;2023-02-04T02:59:27;20.20;;;18.40;;
9186;SDS011;7273;48.902;9.410;2023-02-04T03:01:53;19.38;;;17.63;;
9186;SDS011;7273;48.902;9.410;2023-02-04T03:04:22;18.20;;;16.50;;
9186;SDS011;7273;48.902;9.410;2023-02-04T03:06:49;16.90;;;15.38;;
9186;SDS011;7273;48.902;9.410;2023-02-04T03:09:16;16.15;;;14.68;;
9186;SDS011;7273;48.902;9.410;2023-02-04T03:11:42;16.08;;;14.68;;
9186;SDS011;7273;48.902;9.410;2023-02-04T03:14:07;13.90;;;12.65;;
9186;SDS011;7273;48.902;9.410;2023-02-04T03:16:33;14.55;;;13.23;;
9186;SDS011;7273;48.902;9.410;2023-02-04T03:19:01;16.48;;;15.00;;
9186;SDS011;7273;48.902;9.410;2023-02-04T03:21:29;13.80;;;12.50;;
9186;SDS011;7273;48.902;9.410;2023-02-04T03:23:54;12.70;;;11.50;;
9186;SDS011;7273;48.902;9.410;2023-02-04T03:26:23;15.60;;;14.20;;
9186;SDS011;7273;48.902;9.410;2023-02-04T03:28:50;12.55;;;11.38;;
9186;SDS011;7273;48.902;9.410;2023-02-04T03:31:16;14.73;;;13.43;;
9186;SDS011;7273;48.902;9.410;2023-02-04T03:33:42;14.65;;;13.18;;
9186;SDS011;7273;48.902;9.410;2023-02-04T03:36:08;15.40;;;14.10;;
9186;SDS011;7273;48.902;9.410;2023-02-04T03:38:33;14.55;;;13.25;;
9186;SDS011;7273;48.902;9.410;2023-02-04T03:40:59;16.27;;;14.80;;
9186;SDS011;7273;48.902;9.410;2023-02-04T03:43:25;13.27;;;12.02;;
9186;SDS011;7273;48.902;9.410;2023-02-04T03:45:51;14.80;;;13.43;;
9186;SDS011;7273;48.902;9.410;2023-02-04T03:48:16;14.40;;;13.15;;
9186;SDS011;7273;48.902;9.410;2023-02-04T03:50:42;15.10;;;13.60;;
9186;SDS011;7273;48.902;9.410;2023-02-04T03:53:07;15.30;;;13.88;;
9186;SDS011;7273;48.902;9.410;2023-02-04T03:55:33;15.27;;;13.93;;
9186;SDS011;7273;48.902;9.410;2023-02-04T03:57:58;14.60;;;13.30;;
9186;SDS011;7273;48.902;9.410;2023-02-04T04:00:24;14.07;;;12.77;;
9186;SDS011;7273;48.902;9.410;2023-02-04T04:02:49;13.93;;;12.63;;
9186;SDS011;7273;48.902;9.410;2023-02-04T04:05:15;16.52;;;15.05;;
9186;SDS011;7273;48.902;9.410;2023-02-04T04:07:40;13.95;;;12.65;;
9186;SDS011;7273;48.902;9.410;2023-02-04T04:10:06;17.50;;;15.85;;
9186;SDS011;7273;48.902;9.410;2023-02-04T04:12:32;14.10;;;12.77;;
9186;SDS011;7273;48.902;9.410;2023-02-04T04:14:57;16.00;;;14.52;;
9186;SDS011;7273;48.902;9.410;2023-02-04T04:17:22;12.63;;;11.43;;
9186;SDS011;7273;48.902;9.410;2023-02-04T04:19:48;16.90;;;15.35;;
9186;SDS011;7273;48.902;9.410;2023-02-04T04:22:13;16.70;;;15.25;;
9186;SDS011;7273;48.902;9.410;2023-02-04T04:24:39;15.55;;;14.10;;
9186;SDS011;7273;48.902;9.410;2023-02-04T04:27:04;17.33;;;15.82;;
9186;SDS011;7273;48.902;9.410;2023-02-04T04:29:30;16.52;;;15.02;;
9186;SDS011;7273;48.902;9.410;2023-02-04T04:31:55;17.52;;;15.77;;
9186;SDS011;7273;48.902;9.410;2023-02-04T04:34:20;17.27;;;15.68;;
9186;SDS011;7273;48.902;9.410;2023-02-04T04:36:46;16.85;;;15.30;;
9186;SDS011;7273;48.902;9.410;2023-02-04T04:39:11;15.00;;;13.63;;
9186;SDS011;7273;48.902;9.410;2023-02-04T04:41:37;19.17;;;17.23;;
9186;SDS011;7273;48.902;9.410;2023-02-04T04:44:02;19.90;;;18.10;;
9186;SDS011;7273;48.902;9.410;2023-02-04T04:46:28;19.48;;;17.67;;
9186;SDS011;7273;48.902;9.410;2023-02-04T04:48:53;19.38;;;17.52;;
9186;SDS011;7273;48.902;9.410;2023-02-04T04:51:19;17.27;;;15.65;;
9186;SDS011;7273;48.902;9.410;2023-02-04T04:53:44;20.10;;;18.05;;
9186;SDS011;7273;48.902;9.410;2023-02-04T04:56:09;19.98;;;18.13;;
9186;SDS011;7273;48.902;9.410;2023-02-04T04:58:35;18.55;;;16.70;;
9186;SDS011;7273;48.902;9.410;2023-02-04T05:01:00;21.50;;;19.45;;
9186;SDS011;7273;48.902;9.410;2023-02-04T05:03:26;19.02;;;17.17;;
9186;SDS011;7273;48.902;9.410;2023-02-04T05:05:51;20.17;;;18.20;;
9186;SDS011;7273;48.902;9.410;2023-02-04T05:08:16;20.08;;;18.08;;
9186;SDS011;7273;48.902;9.410;2023-02-04T05:10:43;21.90;;;19.75;;
9186;SDS011;7273;48.902;9.410;2023-02-04T05:13:09;22.40;;;20.25;;
9186;SDS011;7273;48.902;9.410;2023-02-04T05:15:34;20.88;;;18.75;;
9186;SDS011;7273;48.902;9.410;2023-02-04T05:18:00;21.23;;;19.13;;
9186;SDS011;7273;48.902;9.410;2023-02-04T05:20:26;21.48;;;19.30;;
9186;SDS011;7273;48.902;9.410;2023-02-04T05:22:51;21.40;;;19.25;;
9186;SDS011;7273;48.902;9.410;2023-02-04T05:25:17;23.05;;;20.70;;
9186;SDS011;7273;48.902;9.410;2023-02-04T05:27:43;25.48;;;22.95;;
9186;SDS011;7273;48.902;9.410;2023-02-04T05:30:09;27.63;;;24.67;;
9186;SDS011;7273;48.902;9.410;2023-02-04T05:32:35;24.85;;;22.20;;
9186;SDS011;7273;48.902;9.410;2023-02-04T05:35:01;24.27;;;21.73;;
9186;SDS011;7273;48.902;9.410;2023-02-04T05:37:26;26.27;;;23.45;;
9186;SDS011;7273;48.902;9.410;2023-02-04T05:39:52;26.40;;;23.65;;
9186;SDS011;7273;48.902;9.410;2023-02-04T05:42:17;29.40;;;26.25;;
9186;SDS011;7273;48.902;9.410;2023-02-04T05:44:43;29.67;;;25.25;;
9186;SDS011;7273;48.902;9.410;2023-02-04T05:47:08;27.65;;;24.52;;
9186;SDS011;7273;48.902;9.410;2023-02-04T05:49:34;29.17;;;25.65;;
9186;SDS011;7273;48.902;9.410;2023-02-04T05:51:59;31.63;;;27.33;;
9186;SDS011;7273;48.902;9.410;2023-02-04T05:54:24;30.08;;;25.42;;
9186;SDS011;7273;48.902;9.410;2023-02-04T05:56:50;32.78;;;27.23;;
9186;SDS011;7273;48.902;9.410;2023-02-04T05:59:16;33.70;;;29.65;;
9186;SDS011;7273;48.902;9.410;2023-02-04T06:01:42;32.70;;;27.15;;
9186;SDS011;7273;48.902;9.410;2023-02-04T06:04:07;35.17;;;28.48;;
9186;SDS011;7273;48.902;9.410;2023-02-04T06:06:33;32.03;;;27.63;;
9186;SDS011;7273;48.902;9.410;2023-02-04T06:08:58;35.97;;;30.98;;
9186;SDS011;7273;48.902;9.410;2023-02-04T06:11:24;33.85;;;28.23;;
9186;SDS011;7273;48.902;9.410;2023-02-04T06:13:49;33.80;;;28.48;;
9186;SDS011;7273;48.902;9.410;2023-02-04T06:16:14;39.65;;;29.38;;
9186;SDS011;7273;48.902;9.410;2023-02-04T06:18:40;35.40;;;29.08;;
9186;SDS011;7273;48.902;9.410;2023-02-04T06:21:05;35.65;;;29.33;;
9186;SDS011;7273;48.902;9.410;2023-02-04T06:23:31;36.63;;;29.40;;
9186;SDS011;7273;48.902;9.410;2023-02-04T06:25:59;34.63;;;28.27;;
9186;SDS011;7273;48.902;9.410;2023-02-04T06:28:25;35.17;;;28.52;;
9186;SDS011;7273;48.902;9.410;2023-02-04T06:30:50;37.78;;;30.13;;
9186;SDS011;7273;48.902;9.410;2023-02-04T06:33:15;37.13;;;30.38;;
9186;SDS011;7273;48.902;9.410;2023-02-04T06:35:41;37.78;;;30.40;;
9186;SDS011;7273;48.902;9.410;2023-02-04T06:38:06;40.33;;;31.73;;
9186;SDS011;7273;48.902;9.410;2023-02-04T06:40:31;40.85;;;30.42;;
9186;SDS011;7273;48.902;9.410;2023-02-04T06:42:57;38.85;;;30.25;;
9186;SDS011;7273;48.902;9.410;2023-02-04T06:45:22;44.08;;;32.35;;
9186;SDS011;7273;48.902;9.410;2023-02-04T06:47:48;48.40;;;31.13;;
9186;SDS011;7273;48.902;9.410;2023-02-04T06:50:13;42.28;;;32.28;;
9186;SDS011;7273;48.902;9.410;2023-02-04T06:52:43;42.90;;;32.22;;
9186;SDS011;7273;48.902;9.410;2023-02-04T06:55:12;43.85;;;32.25;;
9186;SDS011;7273;48.902;9.410;2023-02-04T06:57:38;43.95;;;34.55;;
9186;SDS011;7273;48.902;9.410;2023-02-04T07:00:05;46.40;;;34.90;;
9186;SDS011;7273;48.902;9.410;2023-02-04T07:02:31;41.75;;;31.42;;
9186;SDS011;7273;48.902;9.410;2023-02-04T07:04:57;41.42;;;31.45;;
9186;SDS011;7273;48.902;9.410;2023-02-04T07:07:24;43.13;;;32.42;;
9186;SDS011;7273;48.902;9.410;2023-02-04T07:09:50;43.58;;;32.35;;
9186;SDS011;7273;48.902;9.410;2023-02-04T07:12:15;41.58;;;31.75;;
9186;SDS011;7273;48.902;9.410;2023-02-04T07:14:41;41.78;;;32.10;;
9186;SDS011;7273;48.902;9.410;2023-02-04T07:17:06;45.20;;;33.73;;
9186;SDS011;7273;48.902;9.410;2023-02-04T07:19:32;44.33;;;32.72;;
9186;SDS011;7273;48.902;9.410;2023-02-04T07:21:57;52.28;;;32.80;;
9186;SDS011;7273;48.902;9.410;2023-02-04T07:24:23;47.00;;;33.50;;
9186;SDS011;7273;48.902;9.410;2023-02-04T07:26:49;44.10;;;33.30;;
9186;SDS011;7273;48.902;9.410;2023-02-04T07:29:15;46.15;;;34.25;;
9186;SDS011;7273;48.902;9.410;2023-02-04T07:31:41;51.78;;;34.20;;
9186;SDS011;7273;48.902;9.410;2023-02-04T07:34:07;42.95;;;32.78;;
9186;SDS011;7273;48.902;9.410;2023-02-04T07:36:32;44.55;;;33.25;;
9186;SDS011;7273;48.902;9.410;2023-02-04T07:38:57;47.08;;;33.28;;
9186;SDS011;7273;48.902;9.410;2023-02-04T07:41:23;51.38;;;34.17;;
9186;SDS011;7273;48.902;9.410;2023-02-04T07:43:48;47.45;;;33.78;;
9186;SDS011;7273;48.902;9.410;2023-02-04T07:46:14;44.22;;;32.42;;
9186;SDS011;7273;48.902;9.410;2023-02-04T07:48:39;49.05;;;32.92;;
9186;SDS011;7273;48.902;9.410;2023-02-04T07:51:04;45.47;;;33.13;;
9186;SDS011;7273;48.902;9.410;2023-02-04T07:53:30;43.85;;;32.08;;
9186;SDS011;7273;48.902;9.410;2023-02-04T07:55:55;45.58;;;32.65;;
9186;SDS011;7273;48.902;9.410;2023-02-04T07:58:21;43.92;;;32.67;;
9186;SDS011;7273;48.902;9.410;2023-02-04T08:00:47;46.78;;;34.47;;
9186;SDS011;7273;48.902;9.410;2023-02-04T08:03:13;43.97;;;33.00;;
9186;SDS011;7273;48.902;9.410;2023-02-04T08:05:38;44.25;;;33.13;;
9186;SDS011;7273;48.902;9.410;2023-02-04T08:08:03;44.28;;;33.67;;
9186;SDS011;7273;48.902;9.410;2023-02-04T08:10:29;44.22;;;33.20;;
9186;SDS011;7273;48.902;9.410;2023-02-04T08:12:54;42.83;;;32.03;;
9186;SDS011;7273;48.902;9.410;2023-02-04T08:15:20;42.67;;;32.05;;
9186;SDS011;7273;48.902;9.410;2023-02-04T08:17:45;40.35;;;30.95;;
9186;SDS011;7273;48.902;9.410;2023-02-04T08:20:11;41.17;;;30.77;;
9186;SDS011;7273;48.902;9.410;2023-02-04T08:22:36;41.90;;;30.40;;
9186;SDS011;7273;48.902;9.410;2023-02-04T08:25:02;40.58;;;31.02;;
9186;SDS011;7273;48.902;9.410;2023-02-04T08:27:29;41.22;;;31.27;;
9186;SDS011;7273;48.902;9.410;2023-02-04T08:29:55;39.85;;;30.55;;
9186;SDS011;7273;48.902;9.410;2023-02-04T08:32:20;42.50;;;31.42;;
9186;SDS011;7273;48.902;9.410;2023-02-04T08:34:46;39.92;;;30.48;;
9186;SDS011;7273;48.902;9.410;2023-02-04T08:37:12;42.30;;;31.77;;
9186;SDS011;7273;48.902;9.410;2023-02-04T08:39:38;40.08;;;30.17;;
9186;SDS011;7273;48.902;9.410;2023-02-04T08:42:08;40.40;;;31.05;;
9186;SDS011;7273;48.902;9.410;2023-02-04T08:44:33;40.78;;;30.80;;
9186;SDS011;7273;48.902;9.410;2023-02-04T08:46:59;40.28;;;30.75;;
9186;SDS011;7273;48.902;9.410;2023-02-04T08:49:24;42.75;;;33.58;;
9186;SDS011;7273;48.902;9.410;2023-02-04T08:51:50;39.53;;;30.67;;
9186;SDS011;7273;48.902;9.410;2023-02-04T08:54:15;38.90;;;30.05;;
9186;SDS011;7273;48.902;9.410;2023-02-04T08:56:41;38.28;;;29.75;;
9186;SDS011;7273;48.902;9.410;2023-02-04T08:59:06;37.25;;;28.98;;
9186;SDS011;7273;48.902;9.410;2023-02-04T09:01:32;42.92;;;33.58;;
9186;SDS011;7273;48.902;9.410;2023-02-04T09:03:57;39.15;;;30.90;;
9186;SDS011;7273;48.902;9.410;2023-02-04T09:06:22;39.38;;;30.00;;
9186;SDS011;7273;48.902;9.410;2023-02-04T09:08:48;37.45;;;29.20;;
9186;SDS011;7273;48.902;9.410;2023-02-04T09:11:13;46.90;;;33.25;;
9186;SDS011;7273;48.902;9.410;2023-02-04T09:13:39;37.65;;;29.50;;
9186;SDS011;7273;48.902;9.410;2023-02-04T09:16:04;35.88;;;28.55;;
9186;SDS011;7273;48.902;9.410;2023-02-04T09:18:30;37.90;;;30.00;;
9186;SDS011;7273;48.902;9.410;2023-02-04T09:20:56;41.20;;;29.85;;
9186;SDS011;7273;48.902;9.410;2023-02-04T09:23:22;39.25;;;29.83;;
9186;SDS011;7273;48.902;9.410;2023-02-04T09:25:48;35.40;;;29.73;;
9186;SDS011;7273;48.902;9.410;2023-02-04T09:28:14;35.03;;;28.15;;
9186;SDS011;7273;48.902;9.410;2023-02-04T09:30:41;38.15;;;31.27;;
9186;SDS011;7273;48.902;9.410;2023-02-04T09:33:08;38.72;;;30.35;;
9186;SDS011;7273;48.902;9.410;2023-02-04T09:35:35;35.53;;;30.05;;
9186;SDS011;7273;48.902;9.410;2023-02-04T09:38:01;36.63;;;28.63;;
9186;SDS011;7273;48.902;9.410;2023-02-04T09:40:27;33.67;;;27.63;;
9186;SDS011;7273;48.902;9.410;2023-02-04T09:42:55;35.38;;;29.77;;
9186;SDS011;7273;48.902;9.410;2023-02-04T09:45:22;34.38;;;28.10;;
9186;SDS011;7273;48.902;9.410;2023-02-04T09:47:54;33.80;;;27.85;;
9186;SDS011;7273;48.902;9.410;2023-02-04T09:50:22;31.92;;;26.88;;
9186;SDS011;7273;48.902;9.410;2023-02-04T09:52:50;30.92;;;25.88;;
9186;SDS011;7273;48.902;9.410;2023-02-04T09:55:19;30.92;;;27.27;;
9186;SDS011;7273;48.902;9.410;2023-02-04T09:57:46;34.00;;;26.80;;
9186;SDS011;7273;48.902;9.410;2023-02-04T10:00:19;34.92;;;29.95;;
9186;SDS011;7273;48.902;9.410;2023-02-04T10:02:47;31.42;;;27.67;;
9186;SDS011;7273;48.902;9.410;2023-02-04T10:05:14;30.40;;;25.90;;
9186;SDS011;7273;48.902;9.410;2023-02-04T10:07:41;31.98;;;28.55;;
9186;SDS011;7273;48.902;9.410;2023-02-04T10:10:12;29.95;;;25.20;;
9186;SDS011;7273;48.902;9.410;2023-02-04T10:12:42;28.35;;;25.27;;
9186;SDS011;7273;48.902;9.410;2023-02-04T10:15:11;24.75;;;22.10;;
9186;SDS011;7273;48.902;9.410;2023-02-04T10:17:38;26.83;;;23.95;;
9186;SDS011;7273;48.902;9.410;2023-02-04T10:20:04;28.80;;;25.83;;
9186;SDS011;7273;48.902;9.410;2023-02-04T10:22:35;27.50;;;22.55;;
9186;SDS011;7273;48.902;9.410;2023-02-04T10:25:07;25.52;;;21.48;;
9186;SDS011;7273;48.902;9.410;2023-02-04T10:27:45;24.40;;;21.90;;
9186;SDS011;7273;48.902;9.410;2023-02-04T10:30:28;23.75;;;21.20;;
9186;SDS011;7273;48.902;9.410;2023-02-04T10:32:57;31.85;;;20.95;;
9186;SDS011;7273;48.902;9.410;2023-02-04T10:35:23;22.77;;;20.38;;
9186;SDS011;7273;48.902;9.410;2023-02-04T10:38:01;24.48;;;21.38;;
9186;SDS011;7273;48.902;9.410;2023-02-04T10:40:32;22.02;;;19.70;;
9186;SDS011;7273;48.902;9.410;2023-02-04T10:43:05;21.65;;;19.40;;
9186;SDS011;7273;48.902;9.410;2023-02-04T10:45:35;20.33;;;18.17;;
9186;SDS011;7273;48.902;9.410;2023-02-04T10:48:01;20.17;;;17.63;;
9186;SDS011;7273;48.902;9.410;2023-02-04T10:50:27;18.85;;;17.00;;
9186;SDS011;7273;48.902;9.410;2023-02-04T10:52:56;17.42;;;15.82;;
9186;SDS011;7273;48.902;9.410;2023-02-04T10:55:58;19.05;;;17.20;;
9186;SDS011;7273;48.902;9.410;2023-02-04T10:58:25;14.02;;;12.73;;
9186;SDS011;7273;48.902;9.410;2023-02-04T11:00:52;10.65;;;6.97;;
9186;SDS011;7273;48.902;9.410;2023-02-04T11:03:21;10.48;;;6.70;;
9186;SDS011;7273;48.902;9.410;2023-02-04T11:05:47;5.22;;;4.70;;
9186;SDS011;7273;48.902;9.410;2023-02-04T11:08:46;3.55;;;3.25;;
9186;SDS011;7273;48.902;9.410;2023-02-04T11:11:12;11.15;;;6.35;;
9186;SDS011;7273;48.902;9.410;2023-02-04T11:13:43;6.63;;;5.78;;
9186;SDS011;7273;48.902;9.410;2023-02-04T11:18:53;8.07;;;7.40;;
9186;SDS011;7273;48.902;9.410;2023-02-04T11:26:44;7.97;;;5.28;;
9186;SDS011;7273;48.902;9.410;2023-02-04T11:31:44;22.92;;;3.15;;
9186;SDS011;7273;48.902;9.410;2023-02-04T11:39:35;2.10;;;1.30;;
9186;SDS011;7273;48.902;9.410;2023-02-04T11:42:03;1.70;;;1.13;;
9186;SDS011;7273;48.902;9.410;2023-02-04T11:44:30;1.55;;;0.73;;
9186;SDS011;7273;48.902;9.410;2023-02-04T11:46:56;2.47;;;1.38;;
9186;SDS011;7273;48.902;9.410;2023-02-04T11:49:23;2.15;;;1.58;;
9186;SDS011;7273;48.902;9.410;2023-02-04T11:51:50;2.10;;;1.20;;
9186;SDS011;7273;48.902;9.410;2023-02-04T11:54:27;3.13;;;1.65;;
9186;SDS011;7273;48.902;9.410;2023-02-04T11:56:57;1.75;;;1.05;;
9186;SDS011;7273;48.902;9.410;2023-02-04T11:59:23;3.15;;;2.08;;
9186;SDS011;7273;48.902;9.410;2023-02-04T12:01:49;3.35;;;1.67;;
9186;SDS011;7273;48.902;9.410;2023-02-04T12:04:22;3.38;;;1.33;;
9186;SDS011;7273;48.902;9.410;2023-02-04T12:06:56;0.88;;;0.57;;
9186;SDS011;7273;48.902;9.410;2023-02-04T12:09:24;1.40;;;0.80;;
9186;SDS011;7273;48.902;9.410;2023-02-04T12:11:52;1.02;;;0.68;;
9186;SDS011;7273;48.902;9.410;2023-02-04T12:14:19;1.90;;;1.02;;
9186;SDS011;7273;48.902;9.410;2023-02-04T12:16:45;1.63;;;0.55;;
9186;SDS011;7273;48.902;9.410;2023-02-04T12:19:18;0.60;;;0.30;;
9186;SDS011;7273;48.902;9.410;2023-02-04T12:21:43;1.15;;;0.73;;
9186;SDS011;7273;48.902;9.410;2023-02-04T12:24:09;2.75;;;0.60;;
9186;SDS011;7273;48.902;9.410;2023-02-04T12:26:34;5.93;;;2.25;;
9186;SDS011;7273;48.902;9.410;2023-02-04T12:29:00;1.10;;;0.52;;
9186;SDS011;7273;48.902;9.410;2023-02-04T12:31:31;4.57;;;0.90;;
9186;SDS011;7273;48.902;9.410;2023-02-04T12:33:57;2.72;;;1.10;;
9186;SDS011;7273;48.902;9.410;2023-02-04T12:36:24;1.00;;;0.63;;
9186;SDS011;7273;48.902;9.410;2023-02-04T12:38:53;14.00;;;2.33;;
9186;SDS011;7273;48.902;9.410;2023-02-04T12:41:19;1.58;;;0.65;;
9186;SDS011;7273;48.902;9.410;2023-02-04T12:43:44;0.73;;;0.55;;
9186;SDS011;7273;48.902;9.410;2023-02-04T12:46:10;1.08;;;0.63;;
9186;SDS011;7273;48.902;9.410;2023-02-04T12:48:36;1.70;;;0.75;;
9186;SDS011;7273;48.902;9.410;2023-02-04T12:51:05;4.30;;;0.82;;
9186;SDS011;7273;48.902;9.410;2023-02-04T12:53:31;1.70;;;1.45;;
9186;SDS011;7273;48.902;9.410;2023-02-04T12:55:56;1.38;;;0.75;;
9186;SDS011;7273;48.902;9.410;2023-02-04T12:58:22;3.65;;;1.00;;
9186;SDS011;7273;48.902;9.410;2023-02-04T13:00:48;1.10;;;0.60;;
9186;SDS011;7273;48.902;9.410;2023-02-04T13:03:13;13.02;;;1.35;;
9186;SDS011;7273;48.902;9.410;2023-02-04T13:05:39;0.88;;;0.50;;
9186;SDS011;7273;48.902;9.410;2023-02-04T13:08:04;1.50;;;0.60;;
9186;SDS011;7273;48.902;9.410;2023-02-04T13:10:30;1.75;;;0.70;;
9186;SDS011;7273;48.902;9.410;2023-02-04T13:12:55;1.27;;;0.50;;
9186;SDS011;7273;48.902;9.410;2023-02-04T13:15:21;6.28;;;0.68;;
9186;SDS011;7273;48.902;9.410;2023-02-04T13:17:46;1.45;;;0.75;;
9186;SDS011;7273;48.902;9.410;2023-02-04T13:20:12;1.27;;;0.65;;
9186;SDS011;7273;48.902;9.410;2023-02-04T13:22:38;2.78;;;1.42;;
9186;SDS011;7273;48.902;9.410;2023-02-04T13:25:04;1.17;;;0.50;;
9186;SDS011;7273;48.902;9.410;2023-02-04T13:27:30;0.52;;;0.40;;
9186;SDS011;7273;48.902;9.410;2023-02-04T13:29:56;0.57;;;0.38;;
9186;SDS011;7273;48.902;9.410;2023-02-04T13:32:22;1.38;;;0.60;;
9186;SDS011;7273;48.902;9.410;2023-02-04T13:34:47;4.43;;;1.25;;
9186;SDS011;7273;48.902;9.410;2023-02-04T13:37:13;0.30;;;0.30;;
9186;SDS011;7273;48.902;9.410;2023-02-04T13:39:38;1.58;;;0.90;;
9186;SDS011;7273;48.902;9.410;2023-02-04T13:42:04;1.83;;;1.08;;
9186;SDS011;7273;48.902;9.410;2023-02-04T13:44:29;2.28;;;0.85;;
9186;SDS011;7273;48.902;9.410;2023-02-04T13:46:55;1.20;;;1.10;;
9186;SDS011;7273;48.902;9.410;2023-02-04T13:49:20;0.90;;;0.45;;
9186;SDS011;7273;48.902;9.410;2023-02-04T13:51:46;2.70;;;0.95;;
9186;SDS011;7273;48.902;9.410;2023-02-04T13:54:11;1.02;;;0.55;;
9186;SDS011;7273;48.902;9.410;2023-02-04T13:56:38;2.88;;;1.27;;
9186;SDS011;7273;48.902;9.410;2023-02-04T13:59:05;5.40;;;1.70;;
9186;SDS011;7273;48.902;9.410;2023-02-04T14:01:31;2.63;;;1.45;;
9186;SDS011;7273;48.902;9.410;2023-02-04T14:03:56;1.88;;;0.98;;
9186;SDS011;7273;48.902;9.410;2023-02-04T14:06:22;2.38;;;1.33;;
9186;SDS011;7273;48.902;9.410;2023-02-04T14:08:49;1.05;;;0.63;;
9186;SDS011;7273;48.902;9.410;2023-02-04T14:11:14;1.50;;;0.73;;
9186;SDS011;7273;48.902;9.410;2023-02-04T14:13:40;5.88;;;0.75;;
9186;SDS011;7273;48.902;9.410;2023-02-04T14:16:05;2.10;;;1.17;;
9186;SDS011;7273;48.902;9.410;2023-02-04T14:18:33;2.30;;;1.10;;
9186;SDS011;7273;48.902;9.410;2023-02-04T14:20:59;2.22;;;1.52;;
9186;SDS011;7273;48.902;9.410;2023-02-04T14:23:24;1.90;;;1.02;;
9186;SDS011;7273;48.902;9.410;2023-02-04T14:25:50;1.13;;;0.60;;
9186;SDS011;7273;48.902;9.410;2023-02-04T14:28:15;1.83;;;0.85;;
9186;SDS011;7273;48.902;9.410;2023-02-04T14:30:41;1.38;;;0.82;;
9186;SDS011;7273;48.902;9.410;2023-02-04T14:33:08;1.00;;;0.60;;
9186;SDS011;7273;48.902;9.410;2023-02-04T14:35:33;1.77;;;0.70;;
9186;SDS011;7273;48.902;9.410;2023-02-04T14:37:59;1.52;;;0.80;;
9186;SDS011;7273;48.902;9.410;2023-02-04T14:40:24;2.47;;;1.05;;
9186;SDS011;7273;48.902;9.410;2023-02-04T14:42:50;2.13;;;1.00;;
9186;SDS011;7273;48.902;9.410;2023-02-04T14:45:15;2.92;;;1.58;;
9186;SDS011;7273;48.902;9.410;2023-02-04T14:47:41;3.30;;;1.15;;
9186;SDS011;7273;48.902;9.410;2023-02-04T14:50:08;1.05;;;0.52;;
9186;SDS011;7273;48.902;9.410;2023-02-04T14:52:36;3.30;;;1.77;;
9186;SDS011;7273;48.902;9.410;2023-02-04T14:55:02;2.05;;;0.82;;
9186;SDS011;7273;48.902;9.410;2023-02-04T14:57:28;1.98;;;0.98;;
9186;SDS011;7273;48.902;9.410;2023-02-04T14:59:53;2.08;;;0.82;;
9186;SDS011;7273;48.902;9.410;2023-02-04T15:02:19;2.70;;;1.20;;
9186;SDS011;7273;48.902;9.410;2023-02-04T15:04:46;1.13;;;1.00;;
9186;SDS011;7273;48.902;9.410;2023-02-04T15:07:13;1.05;;;0.80;;
9186;SDS011;7273;48.902;9.410;2023-02-04T15:09:39;2.92;;;1.95;;